Terminal Aerodrome Forecast
Issued by NWS Quad Cities IA IL

Home | Current Version | Previous Version | Text Only | Print | Product List | Glossary On
Versions: 1 2 3 4 5 6 7 8 9 10 11 12 13 14 15 16 17 18 19 20 21 22 23 24 25 26
000
FTUS43 KDVN 301500 AAB
TAFMLI
TAF AMD
KMLI 301500Z 3015/3112 02004KT P6SM BKN010 BKN025
     FM302000 03005KT P6SM VCSH BKN040
     FM310100 07003KT P6SM BKN050=

USA.gov is the U.S. government's official web portal to all federal, state and local government web resources and services.